sensor_id;sensor_type;location;lat;lon;timestamp;temperature;humidity
12013;DHT22;6065;48.138;16.402;2023-08-24T00:00:46;26.50;99.90
12013;DHT22;6065;48.138;16.402;2023-08-24T00:03:14;26.50;99.90
12013;DHT22;6065;48.138;16.402;2023-08-24T00:05:45;26.40;99.90
12013;DHT22;6065;48.138;16.402;2023-08-24T00:08:18;26.40;99.90
12013;DHT22;6065;48.138;16.402;2023-08-24T00:10:46;26.30;99.90
12013;DHT22;6065;48.138;16.402;2023-08-24T00:13:15;26.40;99.90
12013;DHT22;6065;48.138;16.402;2023-08-24T00:15:45;26.30;99.90
12013;DHT22;6065;48.138;16.402;2023-08-24T00:18:13;26.30;99.90
12013;DHT22;6065;48.138;16.402;2023-08-24T00:20:46;26.20;99.90
12013;DHT22;6065;48.138;16.402;2023-08-24T00:23:18;26.20;99.90
12013;DHT22;6065;48.138;16.402;2023-08-24T00:25:47;26.20;99.90
12013;DHT22;6065;48.138;16.402;2023-08-24T00:28:16;26.10;99.90
12013;DHT22;6065;48.138;16.402;2023-08-24T00:30:44;26.10;99.90
12013;DHT22;6065;48.138;16.402;2023-08-24T00:33:12;26.10;99.90
12013;DHT22;6065;48.138;16.402;2023-08-24T00:35:40;26.00;99.90
12013;DHT22;6065;48.138;16.402;2023-08-24T00:38:11;26.00;99.90
12013;DHT22;6065;48.138;16.402;2023-08-24T00:40:42;26.00;99.90
12013;DHT22;6065;48.138;16.402;2023-08-24T00:43:13;26.00;99.90
12013;DHT22;6065;48.138;16.402;2023-08-24T00:45:41;26.00;99.90
12013;DHT22;6065;48.138;16.402;2023-08-24T00:48:10;25.90;99.90
12013;DHT22;6065;48.138;16.402;2023-08-24T00:50:40;25.90;99.90
12013;DHT22;6065;48.138;16.402;2023-08-24T00:53:10;25.90;99.90
12013;DHT22;6065;48.138;16.402;2023-08-24T00:55:39;25.90;99.90
12013;DHT22;6065;48.138;16.402;2023-08-24T00:58:08;25.80;99.90
12013;DHT22;6065;48.138;16.402;2023-08-24T01:00:38;25.80;99.90
12013;DHT22;6065;48.138;16.402;2023-08-24T01:03:07;25.70;99.90
12013;DHT22;6065;48.138;16.402;2023-08-24T01:05:36;25.80;99.90
12013;DHT22;6065;48.138;16.402;2023-08-24T01:08:05;25.80;99.90
12013;DHT22;6065;48.138;16.402;2023-08-24T01:10:37;25.80;99.90
12013;DHT22;6065;48.138;16.402;2023-08-24T01:13:10;25.70;99.90
12013;DHT22;6065;48.138;16.402;2023-08-24T01:15:42;25.70;99.90
12013;DHT22;6065;48.138;16.402;2023-08-24T01:18:13;25.60;99.90
12013;DHT22;6065;48.138;16.402;2023-08-24T01:20:42;25.60;99.90
12013;DHT22;6065;48.138;16.402;2023-08-24T01:23:14;25.60;99.90
12013;DHT22;6065;48.138;16.402;2023-08-24T01:25:48;25.60;99.90
12013;DHT22;6065;48.138;16.402;2023-08-24T01:28:19;25.50;99.90
12013;DHT22;6065;48.138;16.402;2023-08-24T01:30:47;25.60;99.90
12013;DHT22;6065;48.138;16.402;2023-08-24T01:33:13;25.50;99.90
12013;DHT22;6065;48.138;16.402;2023-08-24T01:35:40;25.50;99.90
12013;DHT22;6065;48.138;16.402;2023-08-24T01:38:07;25.50;99.90
12013;DHT22;6065;48.138;16.402;2023-08-24T01:40:40;25.50;99.90
12013;DHT22;6065;48.138;16.402;2023-08-24T01:43:11;25.50;99.90
12013;DHT22;6065;48.138;16.402;2023-08-24T01:45:41;25.50;99.90
12013;DHT22;6065;48.138;16.402;2023-08-24T01:48:08;25.60;99.90
12013;DHT22;6065;48.138;16.402;2023-08-24T01:50:36;25.60;99.90
12013;DHT22;6065;48.138;16.402;2023-08-24T01:53:03;25.60;99.90
12013;DHT22;6065;48.138;16.402;2023-08-24T01:55:29;25.60;99.90
12013;DHT22;6065;48.138;16.402;2023-08-24T01:57:56;25.60;99.90
12013;DHT22;6065;48.138;16.402;2023-08-24T02:00:23;25.60;99.90
12013;DHT22;6065;48.138;16.402;2023-08-24T02:02:51;25.50;99.90
12013;DHT22;6065;48.138;16.402;2023-08-24T02:05:18;25.50;99.90
12013;DHT22;6065;48.138;16.402;2023-08-24T02:07:44;25.50;99.90
12013;DHT22;6065;48.138;16.402;2023-08-24T02:10:11;25.50;99.90
12013;DHT22;6065;48.138;16.402;2023-08-24T02:12:38;25.40;99.90
12013;DHT22;6065;48.138;16.402;2023-08-24T02:15:05;25.40;99.90
12013;DHT22;6065;48.138;16.402;2023-08-24T02:17:32;25.30;99.90
12013;DHT22;6065;48.138;16.402;2023-08-24T02:20:00;25.30;99.90
12013;DHT22;6065;48.138;16.402;2023-08-24T02:22:28;25.30;99.90
12013;DHT22;6065;48.138;16.402;2023-08-24T02:24:55;25.30;99.90
12013;DHT22;6065;48.138;16.402;2023-08-24T02:27:21;25.20;99.90
12013;DHT22;6065;48.138;16.402;2023-08-24T02:29:48;25.20;99.90
12013;DHT22;6065;48.138;16.402;2023-08-24T02:32:15;25.10;99.90
12013;DHT22;6065;48.138;16.402;2023-08-24T02:34:41;25.10;99.90
12013;DHT22;6065;48.138;16.402;2023-08-24T02:37:10;25.10;99.90
12013;DHT22;6065;48.138;16.402;2023-08-24T02:39:36;25.10;99.90
12013;DHT22;6065;48.138;16.402;2023-08-24T02:42:03;25.10;99.90
12013;DHT22;6065;48.138;16.402;2023-08-24T02:44:30;25.10;99.90
12013;DHT22;6065;48.138;16.402;2023-08-24T02:46:56;25.00;99.90
12013;DHT22;6065;48.138;16.402;2023-08-24T02:49:23;25.00;99.90
12013;DHT22;6065;48.138;16.402;2023-08-24T02:51:50;25.00;99.90
12013;DHT22;6065;48.138;16.402;2023-08-24T02:54:18;25.00;99.90
12013;DHT22;6065;48.138;16.402;2023-08-24T02:56:45;25.00;99.90
12013;DHT22;6065;48.138;16.402;2023-08-24T02:59:12;24.90;99.90
12013;DHT22;6065;48.138;16.402;2023-08-24T03:01:38;24.90;99.90
12013;DHT22;6065;48.138;16.402;2023-08-24T03:04:06;24.80;99.90
12013;DHT22;6065;48.138;16.402;2023-08-24T03:06:33;24.80;99.90
12013;DHT22;6065;48.138;16.402;2023-08-24T03:09:00;24.80;99.90
12013;DHT22;6065;48.138;16.402;2023-08-24T03:11:30;24.80;99.90
12013;DHT22;6065;48.138;16.402;2023-08-24T03:13:57;24.80;99.90
12013;DHT22;6065;48.138;16.402;2023-08-24T03:16:24;24.80;99.90
12013;DHT22;6065;48.138;16.402;2023-08-24T03:18:50;24.70;99.90
12013;DHT22;6065;48.138;16.402;2023-08-24T03:21:17;24.70;99.90
12013;DHT22;6065;48.138;16.402;2023-08-24T03:23:44;24.70;99.90
12013;DHT22;6065;48.138;16.402;2023-08-24T03:26:12;24.70;99.90
12013;DHT22;6065;48.138;16.402;2023-08-24T03:28:40;24.60;99.90
12013;DHT22;6065;48.138;16.402;2023-08-24T03:31:07;24.60;99.90
12013;DHT22;6065;48.138;16.402;2023-08-24T03:33:33;24.60;99.90
12013;DHT22;6065;48.138;16.402;2023-08-24T03:36:00;24.50;99.90
12013;DHT22;6065;48.138;16.402;2023-08-24T03:38:28;24.50;99.90
12013;DHT22;6065;48.138;16.402;2023-08-24T03:40:59;24.50;99.90
12013;DHT22;6065;48.138;16.402;2023-08-24T03:43:26;24.50;99.90
12013;DHT22;6065;48.138;16.402;2023-08-24T03:45:54;24.50;99.90
12013;DHT22;6065;48.138;16.402;2023-08-24T03:48:20;24.50;99.90
12013;DHT22;6065;48.138;16.402;2023-08-24T03:50:47;24.50;99.90
12013;DHT22;6065;48.138;16.402;2023-08-24T03:53:14;24.50;99.90
12013;DHT22;6065;48.138;16.402;2023-08-24T03:55:40;24.40;99.90
12013;DHT22;6065;48.138;16.402;2023-08-24T03:58:07;24.40;99.90
12013;DHT22;6065;48.138;16.402;2023-08-24T04:00:34;24.40;99.90
12013;DHT22;6065;48.138;16.402;2023-08-24T04:03:02;24.40;99.90
12013;DHT22;6065;48.138;16.402;2023-08-24T04:05:29;24.40;99.90
12013;DHT22;6065;48.138;16.402;2023-08-24T04:07:56;24.40;99.90
12013;DHT22;6065;48.138;16.402;2023-08-24T04:10:22;24.30;99.90
12013;DHT22;6065;48.138;16.402;2023-08-24T04:12:49;24.30;99.90
12013;DHT22;6065;48.138;16.402;2023-08-24T04:15:16;24.20;99.90
12013;DHT22;6065;48.138;16.402;2023-08-24T04:17:42;24.20;99.90
12013;DHT22;6065;48.138;16.402;2023-08-24T04:20:11;24.20;99.90
12013;DHT22;6065;48.138;16.402;2023-08-24T04:22:38;24.20;99.90
12013;DHT22;6065;48.138;16.402;2023-08-24T04:25:04;24.20;99.90
12013;DHT22;6065;48.138;16.402;2023-08-24T04:27:31;24.20;99.90
12013;DHT22;6065;48.138;16.402;2023-08-24T04:29:58;24.20;99.90
12013;DHT22;6065;48.138;16.402;2023-08-24T04:32:26;24.10;99.90
12013;DHT22;6065;48.138;16.402;2023-08-24T04:34:53;24.10;99.90
12013;DHT22;6065;48.138;16.402;2023-08-24T04:37:21;24.10;99.90
12013;DHT22;6065;48.138;16.402;2023-08-24T04:39:48;24.10;99.90
12013;DHT22;6065;48.138;16.402;2023-08-24T04:42:15;24.10;99.90
12013;DHT22;6065;48.138;16.402;2023-08-24T04:44:41;24.10;99.90
12013;DHT22;6065;48.138;16.402;2023-08-24T04:47:08;24.00;99.90
12013;DHT22;6065;48.138;16.402;2023-08-24T04:49:35;24.00;99.90
12013;DHT22;6065;48.138;16.402;2023-08-24T04:52:02;24.00;99.90
12013;DHT22;6065;48.138;16.402;2023-08-24T04:54:30;24.00;99.90
12013;DHT22;6065;48.138;16.402;2023-08-24T04:56:57;24.10;99.90
12013;DHT22;6065;48.138;16.402;2023-08-24T04:59:23;24.10;99.90
12013;DHT22;6065;48.138;16.402;2023-08-24T05:01:50;24.00;99.90
12013;DHT22;6065;48.138;16.402;2023-08-24T05:04:17;24.00;99.90
12013;DHT22;6065;48.138;16.402;2023-08-24T05:06:44;24.00;99.90
12013;DHT22;6065;48.138;16.402;2023-08-24T05:09:10;24.10;99.90
12013;DHT22;6065;48.138;16.402;2023-08-24T05:11:38;24.10;99.90
12013;DHT22;6065;48.138;16.402;2023-08-24T05:14:05;24.10;99.90
12013;DHT22;6065;48.138;16.402;2023-08-24T05:16:32;24.10;99.90
12013;DHT22;6065;48.138;16.402;2023-08-24T05:18:58;24.20;99.90
12013;DHT22;6065;48.138;16.402;2023-08-24T05:21:25;24.20;99.90
12013;DHT22;6065;48.138;16.402;2023-08-24T05:23:52;24.20;99.90
12013;DHT22;6065;48.138;16.402;2023-08-24T05:26:18;24.20;99.90
12013;DHT22;6065;48.138;16.402;2023-08-24T05:28:49;24.20;99.90
12013;DHT22;6065;48.138;16.402;2023-08-24T05:31:16;24.30;99.90
12013;DHT22;6065;48.138;16.402;2023-08-24T05:33:42;24.30;99.90
12013;DHT22;6065;48.138;16.402;2023-08-24T05:36:09;24.30;99.90
12013;DHT22;6065;48.138;16.402;2023-08-24T05:38:36;24.30;99.90
12013;DHT22;6065;48.138;16.402;2023-08-24T05:41:03;24.10;99.90
12013;DHT22;6065;48.138;16.402;2023-08-24T05:43:30;24.10;99.90
12013;DHT22;6065;48.138;16.402;2023-08-24T05:45:58;24.10;99.90
12013;DHT22;6065;48.138;16.402;2023-08-24T05:48:24;24.00;99.90
12013;DHT22;6065;48.138;16.402;2023-08-24T05:50:51;24.10;99.90
12013;DHT22;6065;48.138;16.402;2023-08-24T05:53:18;24.10;99.90
12013;DHT22;6065;48.138;16.402;2023-08-24T05:55:45;24.20;99.90
12013;DHT22;6065;48.138;16.402;2023-08-24T05:58:11;24.30;99.90
12013;DHT22;6065;48.138;16.402;2023-08-24T06:00:38;24.40;99.90
12013;DHT22;6065;48.138;16.402;2023-08-24T06:03:06;24.40;99.90
12013;DHT22;6065;48.138;16.402;2023-08-24T06:05:33;24.40;99.90
12013;DHT22;6065;48.138;16.402;2023-08-24T06:07:59;24.30;99.90
12013;DHT22;6065;48.138;16.402;2023-08-24T06:10:26;24.30;99.90
12013;DHT22;6065;48.138;16.402;2023-08-24T06:12:53;24.30;99.90
12013;DHT22;6065;48.138;16.402;2023-08-24T06:15:20;24.40;99.90
12013;DHT22;6065;48.138;16.402;2023-08-24T06:17:49;24.40;99.90
12013;DHT22;6065;48.138;16.402;2023-08-24T06:20:17;24.40;99.90
12013;DHT22;6065;48.138;16.402;2023-08-24T06:22:44;24.50;99.90
12013;DHT22;6065;48.138;16.402;2023-08-24T06:25:11;24.50;99.90
12013;DHT22;6065;48.138;16.402;2023-08-24T06:27:38;24.60;99.90
12013;DHT22;6065;48.138;16.402;2023-08-24T06:30:05;24.70;99.90
12013;DHT22;6065;48.138;16.402;2023-08-24T06:32:33;24.80;99.90
12013;DHT22;6065;48.138;16.402;2023-08-24T06:35:00;24.80;99.90
12013;DHT22;6065;48.138;16.402;2023-08-24T06:37:28;24.80;99.90
12013;DHT22;6065;48.138;16.402;2023-08-24T06:39:54;24.70;99.90
12013;DHT22;6065;48.138;16.402;2023-08-24T06:42:21;24.80;99.90
12013;DHT22;6065;48.138;16.402;2023-08-24T06:44:48;24.80;99.90
12013;DHT22;6065;48.138;16.402;2023-08-24T06:47:16;24.80;99.90
12013;DHT22;6065;48.138;16.402;2023-08-24T06:49:43;24.80;99.90
12013;DHT22;6065;48.138;16.402;2023-08-24T06:52:09;24.80;99.90
12013;DHT22;6065;48.138;16.402;2023-08-24T06:54:37;24.80;99.90
12013;DHT22;6065;48.138;16.402;2023-08-24T06:57:04;24.80;99.90
12013;DHT22;6065;48.138;16.402;2023-08-24T06:59:31;24.80;99.90
12013;DHT22;6065;48.138;16.402;2023-08-24T07:01:58;24.80;99.90
12013;DHT22;6065;48.138;16.402;2023-08-24T07:04:24;24.80;99.90
12013;DHT22;6065;48.138;16.402;2023-08-24T07:06:51;24.90;99.90
12013;DHT22;6065;48.138;16.402;2023-08-24T07:09:18;25.00;99.90
12013;DHT22;6065;48.138;16.402;2023-08-24T07:11:47;25.10;99.90
12013;DHT22;6065;48.138;16.402;2023-08-24T07:14:14;25.10;99.90
12013;DHT22;6065;48.138;16.402;2023-08-24T07:16:41;25.20;99.90
12013;DHT22;6065;48.138;16.402;2023-08-24T07:19:07;25.20;99.90
12013;DHT22;6065;48.138;16.402;2023-08-24T07:21:35;25.30;99.90
12013;DHT22;6065;48.138;16.402;2023-08-24T07:24:02;25.30;99.90
12013;DHT22;6065;48.138;16.402;2023-08-24T07:26:29;25.30;99.90
12013;DHT22;6065;48.138;16.402;2023-08-24T07:28:58;25.40;99.90
12013;DHT22;6065;48.138;16.402;2023-08-24T07:31:25;25.50;99.90
12013;DHT22;6065;48.138;16.402;2023-08-24T07:33:51;25.50;99.90
12013;DHT22;6065;48.138;16.402;2023-08-24T07:36:18;25.60;99.90
12013;DHT22;6065;48.138;16.402;2023-08-24T07:38:45;25.60;99.90
12013;DHT22;6065;48.138;16.402;2023-08-24T07:41:12;25.60;99.90
12013;DHT22;6065;48.138;16.402;2023-08-24T07:43:39;25.70;99.90
12013;DHT22;6065;48.138;16.402;2023-08-24T07:46:07;25.80;99.90
12013;DHT22;6065;48.138;16.402;2023-08-24T07:48:33;25.90;99.90
12013;DHT22;6065;48.138;16.402;2023-08-24T07:51:00;26.00;99.90
12013;DHT22;6065;48.138;16.402;2023-08-24T07:53:27;26.00;99.90
12013;DHT22;6065;48.138;16.402;2023-08-24T07:55:53;26.00;99.90
12013;DHT22;6065;48.138;16.402;2023-08-24T07:58:21;26.10;99.90
12013;DHT22;6065;48.138;16.402;2023-08-24T08:00:49;26.20;99.90
12013;DHT22;6065;48.138;16.402;2023-08-24T08:03:17;26.20;99.90
12013;DHT22;6065;48.138;16.402;2023-08-24T08:05:44;26.20;99.90
12013;DHT22;6065;48.138;16.402;2023-08-24T08:08:11;26.30;99.90
12013;DHT22;6065;48.138;16.402;2023-08-24T08:10:38;26.30;99.90
12013;DHT22;6065;48.138;16.402;2023-08-24T08:13:05;26.40;99.90
12013;DHT22;6065;48.138;16.402;2023-08-24T08:15:32;26.50;99.90
12013;DHT22;6065;48.138;16.402;2023-08-24T08:17:58;26.60;99.90
12013;DHT22;6065;48.138;16.402;2023-08-24T08:20:27;26.60;99.90
12013;DHT22;6065;48.138;16.402;2023-08-24T08:22:56;26.70;99.90
12013;DHT22;6065;48.138;16.402;2023-08-24T08:25:23;26.80;99.90
12013;DHT22;6065;48.138;16.402;2023-08-24T08:27:49;26.80;99.90
12013;DHT22;6065;48.138;16.402;2023-08-24T08:30:16;26.90;99.90
12013;DHT22;6065;48.138;16.402;2023-08-24T08:32:45;26.90;99.90
12013;DHT22;6065;48.138;16.402;2023-08-24T08:35:12;27.00;99.70
12013;DHT22;6065;48.138;16.402;2023-08-24T08:37:40;27.00;99.60
12013;DHT22;6065;48.138;16.402;2023-08-24T08:40:09;27.10;99.50
12013;DHT22;6065;48.138;16.402;2023-08-24T08:42:36;27.10;99.40
12013;DHT22;6065;48.138;16.402;2023-08-24T08:45:04;27.20;99.50
12013;DHT22;6065;48.138;16.402;2023-08-24T08:47:31;27.20;98.90
12013;DHT22;6065;48.138;16.402;2023-08-24T08:49:57;27.30;98.40
12013;DHT22;6065;48.138;16.402;2023-08-24T08:52:25;27.30;98.50
12013;DHT22;6065;48.138;16.402;2023-08-24T08:54:53;27.40;98.70
12013;DHT22;6065;48.138;16.402;2023-08-24T08:57:20;27.40;98.70
12013;DHT22;6065;48.138;16.402;2023-08-24T08:59:47;27.50;98.60
12013;DHT22;6065;48.138;16.402;2023-08-24T09:02:16;27.60;99.30
12013;DHT22;6065;48.138;16.402;2023-08-24T09:04:43;27.70;99.00
12013;DHT22;6065;48.138;16.402;2023-08-24T09:07:11;27.80;99.00
12013;DHT22;6065;48.138;16.402;2023-08-24T09:09:39;27.90;99.40
12013;DHT22;6065;48.138;16.402;2023-08-24T09:12:07;27.90;98.50
12013;DHT22;6065;48.138;16.402;2023-08-24T09:14:34;28.00;98.30
12013;DHT22;6065;48.138;16.402;2023-08-24T09:17:01;28.00;98.50
12013;DHT22;6065;48.138;16.402;2023-08-24T09:19:29;28.10;98.50
12013;DHT22;6065;48.138;16.402;2023-08-24T09:21:56;28.10;98.30
12013;DHT22;6065;48.138;16.402;2023-08-24T09:24:29;28.20;98.20
12013;DHT22;6065;48.138;16.402;2023-08-24T09:26:55;28.20;98.10
12013;DHT22;6065;48.138;16.402;2023-08-24T09:29:23;28.30;97.60
12013;DHT22;6065;48.138;16.402;2023-08-24T09:31:50;28.40;97.60
12013;DHT22;6065;48.138;16.402;2023-08-24T09:34:18;28.40;97.50
12013;DHT22;6065;48.138;16.402;2023-08-24T09:36:46;28.50;97.80
12013;DHT22;6065;48.138;16.402;2023-08-24T09:39:13;28.50;97.60
12013;DHT22;6065;48.138;16.402;2023-08-24T09:41:44;28.60;98.00
12013;DHT22;6065;48.138;16.402;2023-08-24T09:44:11;28.60;97.30
12013;DHT22;6065;48.138;16.402;2023-08-24T09:46:39;28.70;96.90
12013;DHT22;6065;48.138;16.402;2023-08-24T09:49:07;28.70;96.50
12013;DHT22;6065;48.138;16.402;2023-08-24T09:51:34;28.80;96.70
12013;DHT22;6065;48.138;16.402;2023-08-24T09:54:03;28.80;96.70
12013;DHT22;6065;48.138;16.402;2023-08-24T09:56:33;28.80;96.40
12013;DHT22;6065;48.138;16.402;2023-08-24T09:59:00;28.90;96.40
12013;DHT22;6065;48.138;16.402;2023-08-24T10:01:28;28.90;96.70
12013;DHT22;6065;48.138;16.402;2023-08-24T10:03:57;29.00;96.50
12013;DHT22;6065;48.138;16.402;2023-08-24T10:06:24;29.10;96.30
12013;DHT22;6065;48.138;16.402;2023-08-24T10:08:54;29.10;96.10
12013;DHT22;6065;48.138;16.402;2023-08-24T10:11:25;29.20;96.30
12013;DHT22;6065;48.138;16.402;2023-08-24T10:13:56;29.20;96.30
12013;DHT22;6065;48.138;16.402;2023-08-24T10:16:25;29.30;96.20
12013;DHT22;6065;48.138;16.402;2023-08-24T10:18:55;29.30;96.00
12013;DHT22;6065;48.138;16.402;2023-08-24T10:21:25;29.40;96.40
12013;DHT22;6065;48.138;16.402;2023-08-24T10:23:54;29.50;96.70
12013;DHT22;6065;48.138;16.402;2023-08-24T10:26:24;29.60;96.70
12013;DHT22;6065;48.138;16.402;2023-08-24T10:28:52;29.60;96.30
12013;DHT22;6065;48.138;16.402;2023-08-24T10:31:20;29.70;95.90
12013;DHT22;6065;48.138;16.402;2023-08-24T10:33:49;29.70;96.20
12013;DHT22;6065;48.138;16.402;2023-08-24T10:36:18;29.80;95.80
12013;DHT22;6065;48.138;16.402;2023-08-24T10:38:49;29.90;95.40
12013;DHT22;6065;48.138;16.402;2023-08-24T10:41:18;29.90;95.10
12013;DHT22;6065;48.138;16.402;2023-08-24T10:43:48;30.00;96.20
12013;DHT22;6065;48.138;16.402;2023-08-24T10:46:17;30.10;95.40
12013;DHT22;6065;48.138;16.402;2023-08-24T10:48:57;30.10;95.10
12013;DHT22;6065;48.138;16.402;2023-08-24T10:51:27;30.20;95.30
12013;DHT22;6065;48.138;16.402;2023-08-24T10:53:58;30.20;94.40
12013;DHT22;6065;48.138;16.402;2023-08-24T10:56:34;30.30;94.30
12013;DHT22;6065;48.138;16.402;2023-08-24T10:59:10;30.30;94.10
12013;DHT22;6065;48.138;16.402;2023-08-24T11:01:39;30.40;94.20
12013;DHT22;6065;48.138;16.402;2023-08-24T11:04:08;30.40;95.00
12013;DHT22;6065;48.138;16.402;2023-08-24T11:06:50;30.50;94.60
12013;DHT22;6065;48.138;16.402;2023-08-24T11:09:21;30.60;94.70
12013;DHT22;6065;48.138;16.402;2023-08-24T11:11:56;30.70;93.70
12013;DHT22;6065;48.138;16.402;2023-08-24T11:14:25;30.80;93.70
12013;DHT22;6065;48.138;16.402;2023-08-24T11:16:57;30.80;94.00
12013;DHT22;6065;48.138;16.402;2023-08-24T11:19:28;30.90;94.00
12013;DHT22;6065;48.138;16.402;2023-08-24T11:21:58;30.90;93.50
12013;DHT22;6065;48.138;16.402;2023-08-24T11:24:28;30.90;93.80
12013;DHT22;6065;48.138;16.402;2023-08-24T11:26:58;31.00;93.70
12013;DHT22;6065;48.138;16.402;2023-08-24T11:29:28;31.00;93.60
12013;DHT22;6065;48.138;16.402;2023-08-24T11:31:57;31.10;94.10
12013;DHT22;6065;48.138;16.402;2023-08-24T11:34:26;31.20;93.60
12013;DHT22;6065;48.138;16.402;2023-08-24T11:36:55;31.30;93.30
12013;DHT22;6065;48.138;16.402;2023-08-24T11:39:23;31.30;92.90
12013;DHT22;6065;48.138;16.402;2023-08-24T11:41:59;31.40;92.60
12013;DHT22;6065;48.138;16.402;2023-08-24T11:44:28;31.50;92.40
12013;DHT22;6065;48.138;16.402;2023-08-24T11:46:57;31.50;92.30
12013;DHT22;6065;48.138;16.402;2023-08-24T11:49:26;31.60;92.20
12013;DHT22;6065;48.138;16.402;2023-08-24T11:51:55;31.60;92.30
12013;DHT22;6065;48.138;16.402;2023-08-24T11:54:24;31.70;92.10
12013;DHT22;6065;48.138;16.402;2023-08-24T11:56:53;31.80;91.30
12013;DHT22;6065;48.138;16.402;2023-08-24T11:59:23;31.80;91.00
12013;DHT22;6065;48.138;16.402;2023-08-24T12:01:52;31.80;91.80
12013;DHT22;6065;48.138;16.402;2023-08-24T12:04:21;31.90;91.40
12013;DHT22;6065;48.138;16.402;2023-08-24T12:06:49;31.90;91.80
12013;DHT22;6065;48.138;16.402;2023-08-24T12:09:18;32.00;91.20
12013;DHT22;6065;48.138;16.402;2023-08-24T12:11:47;32.00;91.50
12013;DHT22;6065;48.138;16.402;2023-08-24T12:14:18;32.00;91.90
12013;DHT22;6065;48.138;16.402;2023-08-24T12:16:49;32.10;90.70
12013;DHT22;6065;48.138;16.402;2023-08-24T12:19:21;32.10;90.80
12013;DHT22;6065;48.138;16.402;2023-08-24T12:21:50;32.10;91.00
12013;DHT22;6065;48.138;16.402;2023-08-24T12:24:21;32.20;91.00
12013;DHT22;6065;48.138;16.402;2023-08-24T12:26:55;32.20;90.90
12013;DHT22;6065;48.138;16.402;2023-08-24T12:29:24;32.20;91.20
12013;DHT22;6065;48.138;16.402;2023-08-24T12:31:54;32.30;90.60
12013;DHT22;6065;48.138;16.402;2023-08-24T12:34:24;32.40;91.20
12013;DHT22;6065;48.138;16.402;2023-08-24T12:36:53;32.40;90.60
12013;DHT22;6065;48.138;16.402;2023-08-24T12:39:20;32.50;90.30
12013;DHT22;6065;48.138;16.402;2023-08-24T12:41:49;32.50;90.90
12013;DHT22;6065;48.138;16.402;2023-08-24T12:44:18;32.50;90.10
12013;DHT22;6065;48.138;16.402;2023-08-24T12:46:47;32.50;89.70
12013;DHT22;6065;48.138;16.402;2023-08-24T12:49:17;32.50;90.00
12013;DHT22;6065;48.138;16.402;2023-08-24T12:51:43;32.50;90.20
12013;DHT22;6065;48.138;16.402;2023-08-24T12:54:11;32.50;90.00
12013;DHT22;6065;48.138;16.402;2023-08-24T12:56:38;32.60;89.90
12013;DHT22;6065;48.138;16.402;2023-08-24T12:59:05;32.60;89.70
12013;DHT22;6065;48.138;16.402;2023-08-24T13:01:32;32.60;88.90
12013;DHT22;6065;48.138;16.402;2023-08-24T13:03:58;32.60;88.10
12013;DHT22;6065;48.138;16.402;2023-08-24T13:06:27;32.70;88.20
12013;DHT22;6065;48.138;16.402;2023-08-24T13:08:53;32.80;87.80
12013;DHT22;6065;48.138;16.402;2023-08-24T13:11:20;32.80;88.50
12013;DHT22;6065;48.138;16.402;2023-08-24T13:13:47;32.80;87.60
12013;DHT22;6065;48.138;16.402;2023-08-24T13:16:14;32.90;88.10
12013;DHT22;6065;48.138;16.402;2023-08-24T13:18:41;32.90;88.70
12013;DHT22;6065;48.138;16.402;2023-08-24T13:21:08;33.00;89.40
12013;DHT22;6065;48.138;16.402;2023-08-24T13:23:36;33.00;89.60
12013;DHT22;6065;48.138;16.402;2023-08-24T13:26:03;33.00;88.30
12013;DHT22;6065;48.138;16.402;2023-08-24T13:28:30;33.10;87.90
12013;DHT22;6065;48.138;16.402;2023-08-24T13:30:56;33.10;87.70
12013;DHT22;6065;48.138;16.402;2023-08-24T13:33:23;33.10;87.80
12013;DHT22;6065;48.138;16.402;2023-08-24T13:35:50;33.20;87.80
12013;DHT22;6065;48.138;16.402;2023-08-24T13:38:16;33.20;87.80
12013;DHT22;6065;48.138;16.402;2023-08-24T13:40:44;33.30;88.00
12013;DHT22;6065;48.138;16.402;2023-08-24T13:43:11;33.30;87.70
12013;DHT22;6065;48.138;16.402;2023-08-24T13:45:38;33.30;87.70
12013;DHT22;6065;48.138;16.402;2023-08-24T13:48:05;33.30;87.70
12013;DHT22;6065;48.138;16.402;2023-08-24T13:50:31;33.30;88.60
12013;DHT22;6065;48.138;16.402;2023-08-24T13:52:58;33.30;87.50
12013;DHT22;6065;48.138;16.402;2023-08-24T13:55:25;33.30;88.60
12013;DHT22;6065;48.138;16.402;2023-08-24T13:57:53;33.30;88.50
12013;DHT22;6065;48.138;16.402;2023-08-24T14:00:19;33.30;88.30
12013;DHT22;6065;48.138;16.402;2023-08-24T14:02:48;33.20;87.10
12013;DHT22;6065;48.138;16.402;2023-08-24T14:05:15;33.10;87.60
12013;DHT22;6065;48.138;16.402;2023-08-24T14:07:41;33.10;88.40
12013;DHT22;6065;48.138;16.402;2023-08-24T14:10:08;33.00;87.90
12013;DHT22;6065;48.138;16.402;2023-08-24T14:12:35;33.00;88.00
12013;DHT22;6065;48.138;16.402;2023-08-24T14:15:03;33.00;87.70
12013;DHT22;6065;48.138;16.402;2023-08-24T14:17:30;33.00;87.60
12013;DHT22;6065;48.138;16.402;2023-08-24T14:19:57;33.00;87.30
12013;DHT22;6065;48.138;16.402;2023-08-24T14:22:24;33.00;87.00
12013;DHT22;6065;48.138;16.402;2023-08-24T14:24:51;33.10;88.20
12013;DHT22;6065;48.138;16.402;2023-08-24T14:27:18;33.10;87.90
12013;DHT22;6065;48.138;16.402;2023-08-24T14:29:45;33.10;89.30
12013;DHT22;6065;48.138;16.402;2023-08-24T14:32:13;33.00;90.00
12013;DHT22;6065;48.138;16.402;2023-08-24T14:34:39;33.00;89.90
12013;DHT22;6065;48.138;16.402;2023-08-24T14:37:07;33.00;89.40
12013;DHT22;6065;48.138;16.402;2023-08-24T14:39:33;33.00;89.70
12013;DHT22;6065;48.138;16.402;2023-08-24T14:42:00;33.00;89.80
12013;DHT22;6065;48.138;16.402;2023-08-24T14:44:28;33.00;89.60
12013;DHT22;6065;48.138;16.402;2023-08-24T14:46:55;33.00;89.20
12013;DHT22;6065;48.138;16.402;2023-08-24T14:49:23;33.10;89.60
12013;DHT22;6065;48.138;16.402;2023-08-24T14:51:49;33.00;89.10
12013;DHT22;6065;48.138;16.402;2023-08-24T14:54:16;33.10;89.40
12013;DHT22;6065;48.138;16.402;2023-08-24T14:56:43;33.10;88.70
12013;DHT22;6065;48.138;16.402;2023-08-24T14:59:10;33.10;88.80
12013;DHT22;6065;48.138;16.402;2023-08-24T15:01:37;33.10;89.70
12013;DHT22;6065;48.138;16.402;2023-08-24T15:04:03;33.10;89.70
12013;DHT22;6065;48.138;16.402;2023-08-24T15:06:31;33.00;90.20
12013;DHT22;6065;48.138;16.402;2023-08-24T15:08:58;33.00;90.20
12013;DHT22;6065;48.138;16.402;2023-08-24T15:11:25;33.00;90.10
12013;DHT22;6065;48.138;16.402;2023-08-24T15:13:52;32.90;90.30
12013;DHT22;6065;48.138;16.402;2023-08-24T15:16:19;32.90;90.30
12013;DHT22;6065;48.138;16.402;2023-08-24T15:18:46;32.90;90.20
12013;DHT22;6065;48.138;16.402;2023-08-24T15:21:12;32.90;90.30
12013;DHT22;6065;48.138;16.402;2023-08-24T15:23:41;32.80;90.50
12013;DHT22;6065;48.138;16.402;2023-08-24T15:26:08;32.80;90.50
12013;DHT22;6065;48.138;16.402;2023-08-24T15:28:35;32.80;90.40
12013;DHT22;6065;48.138;16.402;2023-08-24T15:31:02;32.80;90.80
12013;DHT22;6065;48.138;16.402;2023-08-24T15:33:29;32.70;90.80